TAF Text Data
IDs:
Format:
Raw Decoded Include METAR

Data at: 0943 UTC 25 Mar 2019

Region: TOP
KATL 250930Z 2510/2612 20005KT P6SM SCT070 BKN100
  FM251300 23006KT P6SM BKN060 OVC100
  FM251800 25010G20KT P6SM -SHRA SCT030 BKN040
  PROB30 2519/2524 VRB15G30KT 4SM TSRA BKN025CB
  FM260000 29010KT P6SM -SHRA BKN060
  FM260300 31010KT P6SM BKN050
  FM261000 33010KT P6SM SCT015 BKN030


KBOS 250530Z 2506/2612 26007KT P6SM BKN150
  FM251000 30008KT P6SM BKN200
  FM251200 33010G19KT P6SM BKN200
  FM251400 33010KT P6SM FEW200


KBWI 250857Z 2509/2612 VRB03KT P6SM OVC100
  FM251400 04005KT P6SM OVC060
  FM251900 04009KT 5SM -RA OVC040
  FM252300 03010KT 5SM -RA SCT010 OVC025
  FM260200 02010KT P6SM SCT010 OVC050
  FM260900 02013G21KT P6SM SCT250


KCLE 250921Z 2509/2612 01012KT P6SM SCT070
  FM251400 04013G20KT P6SM SCT070
  FM252200 04010KT P6SM SKC


KCLT 250936Z 2510/2612 20005KT P6SM BKN250
  FM251700 23008G17KT P6SM VCSH OVC060
  FM252100 23009KT P6SM -SHRA OVC060
  FM260000 29006KT P6SM -SHRA OVC030
  FM260200 32004KT 6SM -SHRA BR OVC015
  PROB30 2602/2607 2SM TSRA BR OVC007CB
  FM261000 04012G19KT P6SM BKN020


KCVG 250904Z 2509/2612 05008KT 5SM -RA BR OVC022
  TEMPO 2509/2513 2SM -RA OVC006
  FM251300 03012G18KT P6SM VCSH OVC012
  FM251800 03014G24KT P6SM BKN025
  FM252200 02012G22KT P6SM SCT025
  FM260100 03010KT P6SM SKC


KDCA 250857Z 2509/2612 05004KT P6SM OVC100
  FM251600 04008KT P6SM OVC060
  FM252000 03009KT 5SM -RA BKN025 OVC060
  FM252200 03012G18KT 5SM -RA BKN015 OVC025
  FM260300 02012G18KT P6SM SCT025 OVC050
  FM261000 02014G20KT P6SM SCT250


KDEN 250859Z 2509/2612 22007KT P6SM SCT003 SCT090
  TEMPO 2510/2514 2SM BR OVC003
  FM251500 19008KT P6SM FEW160 SCT200
  FM251700 32008KT P6SM FEW140 SCT220
  FM252000 03008KT P6SM FEW140 SCT220
  FM260200 14008KT P6SM FEW220
  FM260600 21011KT P6SM FEW220


KDFW 250908Z 2509/2612 02006KT P6SM SCT060
  FM251400 36015KT P6SM FEW120
  FM260000 02007KT P6SM SKC


KDTW 250520Z 2506/2612 03011G19KT P6SM SCT015 BKN080
  FM251100 01010KT P6SM SKC
  FM260000 02005KT P6SM SKC


KEWR 250833Z 2509/2612 26006KT P6SM OVC080
  FM251100 32008KT P6SM FEW035 BKN060
  FM251400 35010KT P6SM FEW100 BKN150
  FM252200 35008KT P6SM FEW050 BKN110
  FM260400 36012KT P6SM SKC


KFLL 250859Z 2509/2612 12008KT P6SM FEW035 FEW070
  FM251500 11013KT P6SM SCT040 SCT070
  FM260000 12008KT P6SM FEW040 SCT250
  FM260400 VRB05KT P6SM SCT030


KIAD 250857Z 2509/2612 VRB03KT P6SM OVC100
  FM251300 01005KT P6SM OVC060
  FM251900 03009KT 5SM -RA BKN025 OVC060
  FM252100 02009KT 5SM -RA BKN010 OVC025
  FM260300 01009KT P6SM SCT025 OVC060
  FM260900 01012G19KT P6SM SCT250


KIAH 250915Z 2509/2612 19006KT P6SM SCT010 OVC015
  FM251000 19004KT 5SM BR OVC009
  FM251500 24005KT 6SM BR OVC009
  FM251700 28007KT P6SM OVC015
  FM252000 33008KT P6SM VCSH SCT015 BKN025
  FM260000 36006KT P6SM BKN050
  FM260300 36006KT P6SM SKC


KJFK 250833Z 2509/2612 26006KT P6SM OVC080
  FM251100 33008KT P6SM FEW035 BKN060
  FM251400 34010KT P6SM FEW100 BKN150
  FM252200 34008KT P6SM FEW050 BKN110
  FM260400 36013KT P6SM SKC


KLAS 250919Z 2509/2612 21006KT P6SM FEW250
  FM251500 VRB05KT P6SM FEW250
  FM260300 21007KT P6SM FEW250


KLAX 250922Z 2509/2612 VRB03KT P6SM FEW012
  FM251100 VRB03KT 3SM BR BKN006
  FM251600 VRB03KT P6SM FEW008
  FM251900 25010KT P6SM SKC
  FM252200 26015G20KT P6SM SKC
  FM260300 26010KT P6SM SCT200
  FM260900 VRB03KT P6SM BKN200


KLGA 250833Z 2509/2612 29007KT P6SM OVC080
  FM251100 33008KT P6SM FEW035 BKN060
  FM251400 35010KT P6SM FEW100 BKN150
  FM252200 35008KT P6SM FEW050 BKN130
  FM260400 36013KT P6SM SKC


KMCO 250858Z 2509/2612 13003KT P6SM BKN060
  FM251400 16006KT P6SM SCT040 SCT250
  FM251700 21007KT P6SM SCT050 SCT250
  FM260000 23005KT P6SM FEW050 SCT250
  FM260800 27004KT P6SM FEW250


KMDW 250911Z 2509/2612 03016G26KT P6SM SCT015 BKN050
  FM251300 03016G25KT P6SM FEW035
  FM252000 04012KT P6SM SKC
  FM260100 04007KT P6SM SKC


KMEM 250851Z 2509/2612 22007KT P6SM VCSH BKN040 OVC100
  FM251200 29007KT P6SM SCT020 BKN040
  TEMPO 2512/2515 BKN020
  FM251500 34010G16KT P6SM OVC025
  FM251800 35014G20KT P6SM OVC030
  FM260000 01010KT P6SM OVC025
  FM260900 01010KT P6SM SCT030


KMIA 250859Z 2509/2612 10005KT P6SM FEW035 SCT250
  FM251500 11010KT P6SM SCT040 SCT070
  FM260000 12006KT P6SM FEW040 SCT250
  FM260400 VRB05KT P6SM SCT030


KMSP 250902Z 2509/2612 04007KT P6SM SCT040
  FM251300 05006KT P6SM FEW250
  FM260000 VRB03KT P6SM SKC


KORD 250909Z 2509/2612 03016G26KT P6SM SCT020 BKN060
  FM251300 03015G25KT P6SM FEW050
  FM252000 03012KT P6SM SKC
  FM260300 03007KT P6SM SKC


KPDX 250843Z 2509/2606 VRB03KT P6SM SCT170
  FM251400 10008KT P6SM OVC100
  FM251800 10007KT P6SM -RA OVC060
  FM252100 16007KT P6SM -RA OVC045
  FM260000 18008KT P6SM -RA BKN030 OVC040


KPHL 250530Z 2506/2612 27006KT P6SM BKN100
  FM251200 34006KT P6SM BKN080
  FM251400 02008KT P6SM BKN060
  FM252000 01008KT P6SM -SHRA OVC040
  TEMPO 2521/2601 5SM -SHRA BR OVC025
  FM260100 01008KT P6SM BKN060
  FM260500 01012G20KT P6SM SKC


KPHX 250840Z 2509/2612 10005KT P6SM FEW250
  FM252200 24005KT P6SM SKC
  FM260800 10005KT P6SM FEW250


KPIT 250858Z 2509/2612 VRB03KT P6SM VCSH OVC050
  FM251200 01007KT P6SM OVC050
  FM251600 02011KT P6SM -SHRA OVC035
  FM252100 36013KT P6SM BKN250
  FM260000 36005KT P6SM SKC


KSAN 250855Z 2509/2612 VRB03KT P6SM SCT012
  TEMPO 2511/2515 BKN010
  FM251900 29014KT P6SM SKC
  FM260400 VRB05KT P6SM FEW010


KSEA 250855Z 2509/2612 10008KT P6SM FEW060 SCT250
  FM251300 04007KT P6SM BKN150 BKN250
  FM252100 04010KT P6SM VCSH BKN100 OVC150
  FM252300 19013G20KT 6SM -RA BKN040 OVC070
  FM260200 18011KT P6SM -SHRA SCT025 OVC040


KSFO 250854Z 2509/2612 17008KT P6SM SCT100 BKN150
  TEMPO 2512/2515 -SHRA BKN050 OVC100
  FM251500 17014KT P6SM VCSH FEW014 BKN050 OVC100
  FM251800 17014G23KT 6SM -SHRA BR SCT014 BKN025 OVC050
  FM252100 25014G20KT 5SM -SHRA BR BKN014 OVC025
  FM260200 27010KT P6SM VCSH BKN015 OVC025
  FM260700 29008KT P6SM SCT012 BKN025


KSLC 250858Z 2509/2612 15006KT P6SM SKC
  FM251500 17006KT P6SM FEW250


KSTL 250906Z 2509/2612 01009KT 3SM BR VCSH OVC004
  TEMPO 2509/2511 2SM -SHRA OVC003
  FM251500 01012KT P6SM OVC015
  FM251800 01011G17KT P6SM BKN025
  FM252200 36010G18KT P6SM BKN040
  FM260200 03006KT P6SM SKC


KTPA 250903Z 2509/2612 VRB03KT P6SM BKN060
  FM251400 15006KT P6SM BKN050
  FM251800 24007KT P6SM SCT050
  FM252100 28008KT P6SM SCT050
  FM260200 26004KT P6SM FEW030 FEW250